x

Buoy B01 - Western Maine Shelf (44030) Wave Buoy

10:04 - Sat 25th Mar 2017 All times are EDT. -4 hours from GMT.

  • Sig Wave height 2.0ft
  • Peak Period 5s
  • Wind
    7mph, 9mph gusts
  • Sea Temp 39°f
  • Luft Temp 37°f
  • Sea Pressure 1023.1mb
  • Buoy B01 - Western Maine Shelf
  • Buoy B01 - Western Maine Shelf

More Historic Weather Station data

Upgrade to MSW Pro to gain access to the past 30 days of data for over 8000 Wavebouys and Weather Stations around the globe.

Join Pro

Comparision Forecast

View Surf forecast
   
Sa 03/25 10:04 2ft 5s 7 9 mph 1023.1mb 39f 37f
9:04 2ft 6s 7 11 mph 1022.8mb 39f 38f
8:04 2.5ft 6s 4
mph
1021.8mb 39f 37f
7:04 2.5ft 6s 7 9 mph 1020.4mb 39f 37f
6:04 2.5ft 6s 9
mph
1019.4mb 39f 37f
5:04 2.5ft 5s 7 9 mph 1018.7mb 39f 37f
4:04 3ft 6s 9 11 mph 1018.2mb 39f 37f
3:04 3.5ft 6s 9
mph
1017.5mb 39f 38f
2:04 3ft 6s 9 11 mph 1017.7mb 39f 38f
1:04 3.5ft 6s 13 16 mph 1017.4mb 39f 38f
12:04 3.5ft 6s 11 13 mph 1017.6mb 39f 38f
Fr 03/24 11:04 3.5ft 6s 11 13 mph 1017.3mb 39f 38f
10:04 4.5ft 6s 9
mph
1017.5mb 39f 39f
9:04 4.5ft 6s 9
mph
1017.7mb 39f 40f
8:04 4.5ft 6s 11 13 mph 1017.6mb 39f 40f
7:04 5ft 6s 16 18 mph 1017.7mb 39f 39f
6:04 5ft 6s 20 22 mph 1018.3mb 39f 38f
5:04 4.5ft 6s 18 20 mph 1020.9mb 39f 37f
4:04 4.5ft 6s 20 22 mph 1021.4mb 39f 35f
3:04 4.5ft 5s 20 25 mph 1022.8mb 39f 36f
2:04 3.5ft 5s 25 29 mph 1023.7mb 39f 35f
1:04 3.5ft 5s 25 29 mph 1026.2mb 39f 34f
12:04 3.5ft 5s 18 22 mph 1028.5mb 39f 32f
11:04 3.5ft 4s 25 34 mph 1029.1mb 39f 36f
10:04 3ft 4s 18 22 mph 1029.8mb 39f 35f
9:04 2ft 3s 20 25 mph 1030.4mb 39f 36f
8:04 1.6ft 3s 16 20 mph 1030.6mb 39f 35f
7:04 1ft 2s 13 16 mph 1031.7mb 39f 34f
6:04 1ft 6s 9 11 mph 1032.1mb 39f 33f
5:04 0.7ft  -  11 13 mph 1032mb 39f 33f
4:04 0.7ft  -  7 9 mph 1032.4mb 39f 32f
3:04 1ft 11s 2 4 mph 1032.2mb 39f 31f
2:04 0.7ft  -  7 9 mph 1033.3mb 39f 32f
1:04 1ft 2s 9 11 mph 1033.5mb 39f 32f
12:04 1ft 3s 11 13 mph 1032.9mb 39f 32f
Do 03/23 11:04 1.3ft 3s 18 20 mph 1032.4mb 39f 33f
10:04 1.6ft 3s 16 20 mph 1032.3mb 39f 33f
9:04 2ft 3s 18 22 mph 1031.6mb 39f 34f
8:04 2.5ft 3s 20 25 mph 1030.4mb 39f 34f
7:04 3ft 3s 20 25 mph 1029.6mb 39f 35f
6:04 2.5ft 4s 22 27 mph 1028.7mb 39f 35f
5:04 2.5ft 4s 22 27 mph 1028.2mb 39f 35f
4:04 2.5ft 3s 22 29 mph 1028.2mb 39f 33f
3:04 2ft 3s 20 27 mph 1028.3mb 39f 32f
2:04 2ft 3s 18 22 mph 1028.3mb 39f 30f
1:04 1.6ft 3s 18 22 mph 1028.8mb 39f 29f
12:04 1.6ft 3s 16 20 mph 1029.6mb 39f 25f
11:04 1.6ft 3s 13 18 mph 1030.1mb 39f 23f
10:04 1.6ft 3s 11 18 mph 1030mb 39f 22f
9:04 2.5ft 3s 16 20 mph 1029.9mb 39f 20f
8:04 2ft 3s 16 20 mph 1029.6mb 39f 20f
7:04 2.5ft 3s 22 29 mph 1028.8mb 39f 20f
6:04 2.5ft 3s 22 27 mph 1028mb 39f 20f
5:04 2.5ft 3s 22 29 mph 1027.1mb 39f 20f
4:04 3ft 4s 27 34 mph 1026.3mb 39f 21f
3:04 3ft 4s 25 31 mph 1026.3mb 39f 21f
2:04 3ft 4s 25 29 mph 1025.9mb 39f 21f
1:04 2.5ft 4s 22 27 mph 1025.5mb 39f 20f
12:04 2.5ft 3s 22 29 mph 1025mb 39f 20f
Mi 03/22 11:04 3.5ft 4s 22 29 mph 1024.2mb 39f 20f
10:04 4ft 4s 27 34 mph 1023.2mb 39f 20f
9:04 4.5ft 5s 27 31 mph 1022.1mb 39f 21f
8:04 4.5ft 5s 27 34 mph 1020.6mb 39f 21f
7:04 5ft 5s 34 43 mph 1019.1mb 39f 22f
6:04 5ft 5s 31 38 mph 1017.5mb 39f 24f
5:04 5ft 5s 31 38 mph 1016.1mb 39f 24f
4:04 4.5ft 5s 31 38 mph 1015.3mb 39f 25f
3:04 5ft 5s 34 40 mph 1014.1mb 39f 25f
2:04 5ft 5s 31 38 mph 1013.3mb 39f 25f
1:04 5ft 5s 27 34 mph 1013mb 39f 26f
12:04 5ft 4s 34 40 mph 1011.5mb 39f 27f
11:04 4.5ft 4s 31 36 mph 1010.6mb 39f 29f
10:04 4ft 5s 29 34 mph 1009.3mb 39f 31f
9:04 4.5ft 4s 31 38 mph 1007.9mb 39f 33f
8:04 3.5ft 4s 29 36 mph 1006.2mb 39f 36f
7:04 3.5ft 11s 25 31 mph 1005.1mb 39f 38f
6:04  -   -  22 27 mph 1004.6mb 39f 38f
5:04  -   -  16 18 mph 1005mb 39f 39f
4:04 3ft 11s 11 13 mph 1005.4mb 39f 39f
3:04 3.5ft 11s 11
mph
1006.2mb 39f 39f
2:04 4.5ft 11s 11
mph
1007.1mb 39f 40f
1:04 4ft 11s 9 11 mph 1007.3mb 39f 40f
12:04 3.5ft 11s 11 13 mph 1007.8mb 39f 42f
Di 03/21 11:04 3ft 11s 11 13 mph 1007.8mb 40f 42f
10:04 3.5ft 11s 11
mph
1007.8mb 40f 40f
9:04 3.5ft 11s 7 9 mph 1007.8mb 40f 41f
8:04 4ft 11s 9 11 mph 1007.5mb 40f 41f
7:04 4.5ft 11s 11 13 mph 1007.1mb 39f 41f
6:04 4ft 11s 13
mph
1007.3mb 39f 41f
5:04 4.5ft 11s 9
mph
1007.5mb 40f 41f
4:04 4.5ft 11s 7 9 mph 1007.9mb 40f 41f